Beihai, China
Current Conditions -  °F | °C
As of 12:00 PM on Sunday 21 Dec 2014 (Local Time) from ZGNN Reporting Station
Clear Clear  
Wind Chill: 63°   Ceiling: Unl
Heat Index: 63°   Visibility: 6mi
Dew Point: 41°   Wind: 13mph
Humidity: 45%   Direction: 30°NNE
Pressure: 30.33"   Gusts: NA
Location:  21.48°N, 109.1°E
Report Text: ZGNN 210400Z 03006MPS CAVOK 17/05 Q1027 NOSIG
Loading
Personal Weather Stations






























Interactive Weather Map New forecast layout! Learn more

10-Day Weather Forecast

Advertisements
Track Severe Weather on mobile